Time;durP1;ratioP1;P1;durP2;ratioP2;P2;SDS_P1;SDS_P2;PMS_P1;PMS_P2;Temp;Humidity;BMP_temperature;BMP_pressure;BME280_temperature;BME280_humidity;BME280_pressure;Samples;Min_cycle;Max_cycle;Signal;HPM_P1;HPM_P2
2022/06/18 00:02:18;;;;;;;2.47;1.40;;;;;;;18.42;60.08;100516.31;5040018;28;20229;-70
2022/06/18 00:04:45;;;;;;;5.37;1.30;;;;;;;18.48;60.23;100518.41;5051784;28;20188;-70
2022/06/18 00:07:15;;;;;;;1.67;1.57;;;;;;;18.68;58.71;100514.19;5051093;28;20184;-70
2022/06/18 00:09:43;;;;;;;3.10;1.50;;;;;;;18.57;59.56;100514.22;5050650;28;20660;-70
2022/06/18 00:14:55;;;;;;;2.77;2.10;;;;;;;18.48;61.83;100512.38;5046634;28;20319;-70
2022/06/18 00:17:21;;;;;;;3.87;1.63;;;;;;;18.62;62.19;100509.47;5035151;28;20678;-70
2022/06/18 00:19:47;;;;;;;2.07;1.70;;;;;;;18.61;62.74;100507.00;5050629;28;20190;-70
2022/06/18 00:22:15;;;;;;;3.60;1.87;;;;;;;18.64;62.44;100510.19;5040155;28;20253;-70
2022/06/18 00:24:41;;;;;;;3.93;1.80;;;;;;;18.64;62.38;100507.56;5051244;28;20221;-71
2022/06/18 00:27:10;;;;;;;1.70;1.60;;;;;;;18.61;63.16;100512.22;5050872;28;20183;-71
2022/06/18 00:29:35;;;;;;;2.00;1.70;;;;;;;18.60;64.14;100511.38;5050662;28;20201;-71
2022/06/18 00:32:00;;;;;;;3.60;2.07;;;;;;;18.59;63.77;100508.88;5026885;28;20356;-71
2022/06/18 00:34:25;;;;;;;2.23;1.90;;;;;;;18.51;63.79;100501.72;5050852;28;20688;-69
2022/06/18 00:36:51;;;;;;;3.37;1.73;;;;;;;18.44;63.72;100508.38;5050481;28;20188;-69
2022/06/18 00:39:17;;;;;;;3.50;1.67;;;;;;;18.46;63.43;100515.09;5051274;28;20198;-69
2022/06/18 00:41:46;;;;;;;2.90;1.43;;;;;;;18.37;63.04;100508.06;5028782;28;20225;-69
2022/06/18 00:44:26;;;;;;;3.40;1.50;;;;;;;18.26;63.65;100508.91;5050626;28;20181;-69
2022/06/18 00:47:27;;;;;;;2.20;1.70;;;;;;;18.19;63.52;100511.16;5050424;28;20338;-69
2022/06/18 00:50:02;;;;;;;3.03;1.70;;;;;;;18.15;65.27;100506.34;5050874;28;20625;-69
2022/06/18 00:52:39;;;;;;;2.07;1.40;;;;;;;18.05;64.98;100509.66;5043069;28;20208;-69
2022/06/18 00:55:17;;;;;;;3.03;1.67;;;;;;;17.96;65.08;100506.97;5059469;28;20207;-69
2022/06/18 00:57:55;;;;;;;5.43;1.40;;;;;;;17.84;65.43;100504.38;5048846;28;20537;-69
2022/06/18 01:00:28;;;;;;;3.47;1.50;;;;;;;17.81;65.97;100501.16;5040705;28;20693;-69
2022/06/18 01:02:54;;;;;;;3.37;1.53;;;;;;;17.78;65.30;100510.03;5036354;28;20621;-68
2022/06/18 01:05:21;;;;;;;1.53;1.33;;;;;;;17.70;65.14;100502.00;5050745;28;20268;-69
2022/06/18 01:07:53;;;;;;;1.53;1.40;;;;;;;17.62;64.91;100512.19;5050066;28;20177;-68
2022/06/18 01:10:42;;;;;;;1.63;1.53;;;;;;;17.51;65.22;100510.44;5040286;28;20259;-69
2022/06/18 01:13:13;;;;;;;3.97;1.60;;;;;;;17.57;65.75;100512.56;5047975;28;20209;-69
2022/06/18 01:15:41;;;;;;;4.00;1.50;;;;;;;17.53;65.85;100513.75;5048338;28;20236;-69
2022/06/18 01:18:07;;;;;;;3.20;1.60;;;;;;;17.49;65.38;100510.56;5047332;28;20173;-69
2022/06/18 01:20:46;;;;;;;2.63;1.60;;;;;;;17.42;65.50;100506.75;5031109;28;20716;-69
2022/06/18 01:23:34;;;;;;;3.33;1.50;;;;;;;17.36;65.41;100512.44;5039984;28;20173;-69
2022/06/18 01:26:00;;;;;;;2.03;1.23;;;;;;;17.39;66.39;100496.59;5054206;28;20241;-69
2022/06/18 01:28:26;;;;;;;5.13;2.30;;;;;;;17.35;66.43;100496.03;5054648;28;20263;-69
2022/06/18 01:30:52;;;;;;;2.00;1.30;;;;;;;17.28;66.70;100492.22;5043737;28;20332;-69
2022/06/18 01:33:18;;;;;;;4.80;1.40;;;;;;;17.25;66.72;100482.06;5043335;28;20280;-69
2022/06/18 01:35:47;;;;;;;3.10;1.30;;;;;;;17.21;66.60;100488.44;5053779;28;20683;-69
2022/06/18 01:38:13;;;;;;;2.00;1.47;;;;;;;17.24;66.86;100483.00;5053843;28;20217;-68
2022/06/18 01:40:44;;;;;;;1.30;1.20;;;;;;;17.19;67.06;100477.31;5041147;28;20800;-69
2022/06/18 01:43:12;;;;;;;1.40;1.30;;;;;;;17.19;67.56;100474.72;5039611;28;20170;-70
2022/06/18 01:45:40;;;;;;;1.30;1.20;;;;;;;17.19;67.42;100483.38;5053854;28;20264;-69
2022/06/18 01:48:33;;;;;;;3.73;1.53;;;;;;;17.09;68.29;100487.59;5052621;28;20261;-69
2022/06/18 01:51:14;;;;;;;2.93;1.60;;;;;;;17.14;69.28;100479.44;5034428;28;20229;-69
2022/06/18 01:54:01;;;;;;;2.37;1.50;;;;;;;17.00;69.09;100483.91;5039629;28;20190;-69
2022/06/18 01:56:30;;;;;;;2.20;1.40;;;;;;;16.95;69.42;100478.25;5041995;28;20193;-69
2022/06/18 01:59:05;;;;;;;1.30;1.13;;;;;;;16.87;69.66;100488.34;5053687;28;20193;-69
2022/06/18 02:01:35;;;;;;;1.57;1.40;;;;;;;16.88;69.26;100480.47;5055088;28;20223;-69
2022/06/18 02:04:02;;;;;;;1.87;1.60;;;;;;;16.88;69.40;100483.06;5051207;28;20588;-68
2022/06/18 02:06:30;;;;;;;1.57;1.47;;;;;;;16.88;69.51;100477.88;5053189;28;20181;-68
2022/06/18 02:08:56;;;;;;;4.10;1.50;;;;;;;16.84;69.78;100480.78;5047299;28;20182;-68
2022/06/18 02:11:22;;;;;;;1.40;1.30;;;;;;;16.85;70.51;100482.47;5039184;28;20263;-69
2022/06/18 02:14:02;;;;;;;3.50;1.43;;;;;;;16.77;70.49;100478.66;5045423;28;20265;-69
2022/06/18 02:16:30;;;;;;;1.37;1.27;;;;;;;16.79;70.80;100481.13;5051137;28;20212;-69
2022/06/18 02:18:59;;;;;;;2.80;1.40;;;;;;;16.75;71.00;100477.13;5053427;28;20284;-69
2022/06/18 02:21:24;;;;;;;2.23;1.40;;;;;;;16.83;71.07;100469.59;5042681;28;20380;-68
2022/06/18 02:23:52;;;;;;;3.03;1.30;;;;;;;16.87;70.41;100472.75;5046454;28;20216;-68
2022/06/18 02:26:19;;;;;;;1.97;1.30;;;;;;;16.82;71.18;100459.28;5051175;28;20288;-69
2022/06/18 02:28:45;;;;;;;1.50;1.37;;;;;;;16.82;71.41;100459.28;5053405;28;20201;-69
2022/06/18 02:31:16;;;;;;;2.20;1.33;;;;;;;16.79;71.58;100455.16;5042432;28;20229;-69
2022/06/18 02:33:47;;;;;;;3.93;1.30;;;;;;;16.80;71.72;100456.81;5051614;28;20212;-69
2022/06/18 02:36:17;;;;;;;2.33;1.50;;;;;;;16.79;72.33;100460.34;5052685;28;20235;-68
2022/06/18 02:38:43;;;;;;;2.23;1.47;;;;;;;16.75;73.46;100445.94;5039921;28;20625;-69
2022/06/18 02:41:10;;;;;;;1.70;1.57;;;;;;;16.77;72.90;100454.47;5042373;28;20221;-69
2022/06/18 02:43:36;;;;;;;1.80;1.60;;;;;;;16.77;72.54;100454.47;5044208;28;20192;-68
2022/06/18 02:46:02;;;;;;;2.73;2.00;;;;;;;16.75;72.29;100454.56;5052815;28;20743;-68
2022/06/18 02:48:31;;;;;;;1.93;1.70;;;;;;;16.77;72.27;100452.69;5052929;28;20315;-68
2022/06/18 02:50:58;;;;;;;4.83;1.50;;;;;;;16.76;72.79;100456.22;5042560;28;20229;-68
2022/06/18 02:53:24;;;;;;;2.23;1.70;;;;;;;16.85;73.02;100456.47;5039774;28;20552;-58
2022/06/18 02:55:54;;;;;;;2.00;1.40;;;;;;;17.01;72.47;100451.78;5050956;28;20221;-57
2022/06/18 02:58:38;;;;;;;1.77;1.67;;;;;;;17.00;71.91;100447.53;5050820;28;20181;-58
2022/06/18 03:01:07;;;;;;;1.77;1.60;;;;;;;17.10;72.44;100458.91;5031885;28;20225;-58
2022/06/18 03:03:36;;;;;;;2.50;1.80;;;;;;;17.09;72.71;100457.25;5043057;28;20205;-57
2022/06/18 03:06:02;;;;;;;4.80;1.60;;;;;;;17.01;73.31;100457.00;5052068;28;20264;-58
2022/06/18 03:08:29;;;;;;;1.40;1.30;;;;;;;16.99;73.43;100456.28;5046170;28;20320;-58
2022/06/18 03:13:39;;;;;;;2.33;1.50;;;;;;;17.00;73.56;100457.13;5048060;28;20184;-58
2022/06/18 03:16:08;;;;;;;1.80;1.43;;;;;;;16.87;73.17;100454.56;5049388;28;20607;-62
2022/06/18 03:18:35;;;;;;;4.47;1.53;;;;;;;16.91;73.78;100454.25;5050233;28;20656;-58
2022/06/18 03:21:00;;;;;;;1.83;1.57;;;;;;;16.80;74.70;100451.63;5032138;28;20264;-58
2022/06/18 03:23:26;;;;;;;5.20;1.47;;;;;;;16.76;75.33;100447.59;5060063;28;20223;-58
2022/06/18 03:25:52;;;;;;;3.40;1.80;;;;;;;16.82;74.95;100456.69;5046340;28;20214;-58
2022/06/18 03:28:19;;;;;;;1.87;1.60;;;;;;;16.81;75.18;100457.63;5048803;28;20295;-60
2022/06/18 03:30:44;;;;;;;1.80;1.70;;;;;;;16.84;75.34;100455.63;5017701;28;20225;-59
2022/06/18 03:33:12;;;;;;;1.70;1.60;;;;;;;16.85;75.60;100457.28;5049242;28;20183;-58
2022/06/18 03:35:39;;;;;;;3.17;1.57;;;;;;;16.81;76.43;100463.66;5043427;28;20288;-58
2022/06/18 03:38:04;;;;;;;2.33;2.17;;;;;;;16.86;75.99;100464.16;5043478;28;20607;-58
2022/06/18 03:40:30;;;;;;;1.70;1.60;;;;;;;16.96;75.37;100463.50;5045365;28;20307;-57
2022/06/18 03:42:55;;;;;;;4.60;2.00;;;;;;;16.60;76.17;100463.50;5063585;28;20182;-58
2022/06/18 03:45:21;;;;;;;2.53;1.90;;;;;;;16.64;77.33;100461.50;5051352;28;20181;-59
2022/06/18 03:47:48;;;;;;;4.27;2.10;;;;;;;16.73;77.00;100463.41;5051313;28;20181;-58
2022/06/18 03:50:17;;;;;;;1.90;1.80;;;;;;;17.01;75.41;100469.16;5039131;28;20185;-59
2022/06/18 03:52:43;;;;;;;3.10;1.80;;;;;;;17.19;74.73;100467.78;5030877;28;20178;-59
2022/06/18 03:55:13;;;;;;;1.80;1.50;;;;;;;17.43;72.94;100462.44;5043737;28;20229;-59
2022/06/18 03:57:38;;;;;;;3.10;1.57;;;;;;;17.45;73.46;100464.91;5050957;28;20662;-59
2022/06/18 04:00:07;;;;;;;2.20;1.73;;;;;;;17.44;73.91;100463.28;5041209;28;20217;-59
2022/06/18 04:02:32;;;;;;;1.80;1.63;;;;;;;17.53;73.30;100462.53;5046602;28;20212;-58
2022/06/18 04:04:57;;;;;;;4.10;1.90;;;;;;;17.51;73.34;100464.44;5045420;28;20272;-59
2022/06/18 04:07:24;;;;;;;4.23;1.87;;;;;;;17.53;73.40;100459.94;5036244;28;20244;-59
2022/06/18 04:09:52;;;;;;;4.57;1.97;;;;;;;17.57;73.47;100461.34;5044067;28;20616;-58
2022/06/18 04:12:17;;;;;;;3.40;1.90;;;;;;;17.66;73.14;100453.78;5024776;28;20283;-59
2022/06/18 04:14:43;;;;;;;2.23;1.60;;;;;;;17.94;72.42;100462.84;5051071;28;20224;-59
2022/06/18 04:17:13;;;;;;;2.83;1.90;;;;;;;17.99;71.49;100454.69;5051038;28;20660;-58
2022/06/18 04:19:39;;;;;;;5.27;2.37;;;;;;;18.17;70.10;100458.41;5049707;28;20254;-59
2022/06/18 04:22:05;;;;;;;2.47;1.50;;;;;;;18.32;69.78;100456.34;5026303;28;20237;-58
2022/06/18 04:24:30;;;;;;;7.90;1.93;;;;;;;18.53;67.81;100453.75;5051408;28;20248;-59
2022/06/18 04:26:55;;;;;;;2.07;1.80;;;;;;;18.73;68.11;100455.63;5050355;28;20181;-59
2022/06/18 04:29:21;;;;;;;1.60;1.43;;;;;;;18.87;67.14;100453.53;5051356;28;20207;-59
2022/06/18 04:31:46;;;;;;;3.13;2.20;;;;;;;18.95;66.09;100454.69;5039960;28;20228;-59
2022/06/18 04:34:11;;;;;;;3.03;1.90;;;;;;;19.07;64.25;100464.09;5050948;28;20181;-59
2022/06/18 04:36:39;;;;;;;2.47;1.50;;;;;;;19.04;64.26;100456.53;5049313;28;20298;-59
2022/06/18 04:39:05;;;;;;;3.10;2.30;;;;;;;19.22;64.85;100461.94;5049893;28;20212;-58
2022/06/18 04:41:31;;;;;;;2.90;1.77;;;;;;;19.19;66.94;100462.22;5030655;28;20332;-58
2022/06/18 04:43:57;;;;;;;4.03;2.63;;;;;;;19.25;66.88;100460.88;5050883;28;20205;-58
2022/06/18 04:46:23;;;;;;;4.30;1.83;;;;;;;19.37;66.84;100459.00;5050705;28;20271;-60
2022/06/18 04:48:48;;;;;;;5.60;2.23;;;;;;;19.54;66.32;100453.13;5051045;28;20257;-59
2022/06/18 04:51:14;;;;;;;2.37;2.00;;;;;;;19.81;66.41;100452.50;5040528;28;20260;-59
2022/06/18 04:53:39;;;;;;;3.37;1.80;;;;;;;19.82;64.10;100462.00;5036654;28;20584;-59
2022/06/18 04:56:06;;;;;;;1.70;1.57;;;;;;;20.06;63.11;100462.59;5050115;28;20648;-59
2022/06/18 04:58:31;;;;;;;2.27;1.60;;;;;;;20.08;60.84;100452.81;5053720;28;20200;-59
2022/06/18 05:00:58;;;;;;;7.57;2.30;;;;;;;20.25;59.84;100459.16;5044553;28;20704;-59
2022/06/18 05:03:24;;;;;;;3.13;1.87;;;;;;;20.47;58.51;100458.84;5039821;28;20177;-58
2022/06/18 05:05:49;;;;;;;5.50;1.80;;;;;;;20.61;58.24;100462.00;5039680;28;20186;-58
2022/06/18 05:08:15;;;;;;;3.57;1.97;;;;;;;20.44;58.71;100456.53;5054315;28;20233;-59
2022/06/18 05:10:40;;;;;;;1.93;1.73;;;;;;;20.44;58.80;100459.16;5040880;28;20256;-59
2022/06/18 05:13:06;;;;;;;2.37;1.73;;;;;;;20.54;58.70;100461.75;5067906;28;20177;-59
2022/06/18 05:15:32;;;;;;;2.93;1.57;;;;;;;20.82;57.85;100458.44;5039281;28;20212;-58
2022/06/18 05:17:58;;;;;;;2.77;1.83;;;;;;;20.74;58.07;100459.94;5054014;28;20216;-58
2022/06/18 05:20:24;;;;;;;5.30;1.77;;;;;;;20.80;57.36;100462.00;5044577;28;20221;-59
2022/06/18 05:22:50;;;;;;;3.70;1.80;;;;;;;20.92;56.16;100453.97;5051372;28;20198;-59
2022/06/18 05:25:16;;;;;;;2.37;1.73;;;;;;;20.99;55.83;100457.69;5063017;28;20253;-59
2022/06/18 05:27:43;;;;;;;3.10;1.97;;;;;;;21.29;54.82;100458.38;5053020;28;20205;-58
2022/06/18 05:30:12;;;;;;;5.93;1.90;;;;;;;21.69;54.15;100448.56;5043796;28;20205;-59
2022/06/18 05:32:37;;;;;;;3.17;1.70;;;;;;;21.81;53.22;100436.09;5048366;28;20186;-60
2022/06/18 05:35:03;;;;;;;4.90;1.90;;;;;;;21.85;52.23;100447.91;5059333;28;20208;-59
2022/06/18 05:37:31;;;;;;;3.17;1.57;;;;;;;22.29;50.80;100445.34;5054354;28;20229;-58
2022/06/18 05:39:57;;;;;;;5.47;1.90;;;;;;;22.42;50.65;100444.16;5058326;28;20182;-60
2022/06/18 05:42:22;;;;;;;1.97;1.60;;;;;;;22.83;48.50;100437.34;5032757;28;20229;-59
2022/06/18 05:44:48;;;;;;;3.67;1.77;;;;;;;22.95;48.01;100435.28;5057602;28;20205;-57
2022/06/18 05:47:22;;;;;;;2.90;1.70;;;;;;;23.26;47.64;100428.72;5032346;28;20185;-57
2022/06/18 05:49:48;;;;;;;1.60;1.50;;;;;;;23.59;46.01;100431.44;5039141;28;20192;-57
2022/06/18 05:52:13;;;;;;;4.17;1.77;;;;;;;23.71;45.95;100426.72;5022787;28;20236;-59
2022/06/18 05:54:39;;;;;;;5.27;2.43;;;;;;;23.52;46.34;100426.03;5071472;28;20189;-59
2022/06/18 05:57:05;;;;;;;2.23;1.90;;;;;;;23.63;45.52;100427.50;5069565;28;20187;-60
2022/06/18 05:59:31;;;;;;;4.40;2.10;;;;;;;24.04;44.79;100424.97;5051970;28;20195;-59
2022/06/18 06:01:56;;;;;;;3.17;1.80;;;;;;;24.21;44.77;100431.03;5051317;28;20714;-58
2022/06/18 06:04:22;;;;;;;2.77;1.80;;;;;;;24.49;43.25;100435.94;5070960;28;20192;-58
2022/06/18 06:06:48;;;;;;;3.47;1.40;;;;;;;24.91;42.14;100423.56;5072330;28;20326;-58
2022/06/18 06:11:28;;;;;;;3.47;1.73;;;;;;;25.51;40.79;100434.50;5066043;28;20719;-60
2022/06/18 06:11:59;;;;;;;4.00;1.65;;;;;;;26.06;38.71;100430.84;5059891;28;20220;-58
2022/06/18 06:14:24;;;;;;;5.43;1.85;;;;;;;26.47;37.51;100440.19;5065447;28;20212;-59
2022/06/18 06:16:50;;;;;;;3.72;1.67;;;;;;;27.11;36.07;100432.75;5068842;28;20196;-59
2022/06/18 06:19:15;;;;;;;4.00;1.40;;;;;;;27.73;36.16;100441.19;5060995;28;20665;-59
2022/06/18 06:21:40;;;;;;;1.63;1.30;;;;;;;27.66;35.83;100441.94;5056183;28;20758;-59
2022/06/18 06:24:06;;;;;;;2.35;1.50;;;;;;;28.80;34.25;100444.66;5063684;28;20221;-60
2022/06/18 06:26:34;;;;;;;3.83;1.25;;;;;;;29.95;32.37;100436.09;5071451;28;20185;-59
2022/06/18 06:29:00;;;;;;;2.83;1.60;;;;;;;30.63;31.27;100434.22;5069972;28;20212;-58
2022/06/18 06:31:26;;;;;;;1.95;1.45;;;;;;;31.45;29.43;100433.69;5060243;28;20239;-66
2022/06/18 06:33:51;;;;;;;5.20;1.45;;;;;;;32.03;28.96;100427.34;5058519;28;20185;-61
2022/06/18 06:36:17;;;;;;;6.25;1.52;;;;;;;32.43;28.80;100440.28;5052841;28;20645;-60
2022/06/18 06:38:42;;;;;;;1.95;1.60;;;;;;;32.26;28.18;100439.25;5053541;28;20299;-60
2022/06/18 06:41:16;;;;;;;2.03;1.20;;;;;;;32.55;28.90;100436.88;5051939;28;20316;-59
2022/06/18 06:43:41;;;;;;;2.20;1.42;;;;;;;33.30;27.77;100435.81;5051635;28;20611;-59
2022/06/18 06:46:11;;;;;;;1.90;1.48;;;;;;;32.03;28.20;100438.78;5052301;28;20269;-59
2022/06/18 06:48:36;;;;;;;2.63;1.20;;;;;;;31.43;29.22;100433.06;5061243;28;20188;-60
2022/06/18 06:51:02;;;;;;;3.75;1.60;;;;;;;31.46;28.66;100425.47;5054541;28;20713;-59
2022/06/18 06:53:27;;;;;;;2.90;1.40;;;;;;;31.12;29.05;100430.16;5048774;28;20190;-69
2022/06/18 06:58:36;;;;;;;5.10;1.00;;;;;;;33.15;25.96;100431.69;5047940;28;20678;-69
2022/06/18 07:01:02;;;;;;;2.80;1.55;;;;;;;33.50;25.03;100430.19;5023353;28;20221;-69
2022/06/18 07:03:31;;;;;;;8.13;1.25;;;;;;;33.99;23.71;100431.91;5033418;28;20173;-69
2022/06/18 07:05:57;;;;;;;1.75;1.30;;;;;;;34.09;23.37;100424.97;5049705;28;20189;-70
2022/06/18 07:08:23;;;;;;;1.17;1.05;;;;;;;34.22;23.51;100420.44;5056565;28;20196;-69
2022/06/18 07:10:50;;;;;;;3.13;1.00;;;;;;;33.65;23.26;100421.75;5048362;28;20228;-69
2022/06/18 07:13:16;;;;;;;1.60;1.27;;;;;;;35.59;21.78;100429.78;5055303;28;20324;-67
2022/06/18 07:15:42;;;;;;;2.35;1.13;;;;;;;35.94;22.17;100423.44;5039216;28;20557;-68
2022/06/18 07:18:15;;;;;;;4.07;1.50;;;;;;;36.39;21.29;100432.38;5060003;28;20192;-68
2022/06/18 07:20:42;;;;;;;1.83;1.40;;;;;;;36.66;20.73;100430.56;5043880;28;20595;-68
2022/06/18 07:23:07;;;;;;;2.10;1.10;;;;;;;36.21;21.76;100428.91;5062289;28;20182;-68
2022/06/18 07:25:33;;;;;;;2.28;1.42;;;;;;;36.74;21.38;100432.00;5051830;28;20747;-68
2022/06/18 07:27:58;;;;;;;3.85;1.40;;;;;;;36.23;22.00;100424.09;5051296;28;20220;-68
2022/06/18 07:30:23;;;;;;;2.08;1.17;;;;;;;36.77;21.13;100433.38;5020036;28;20230;-68
2022/06/18 07:32:49;;;;;;;1.92;1.10;;;;;;;37.26;20.48;100432.53;5048233;28;20186;-68
2022/06/18 07:35:19;;;;;;;1.70;1.20;;;;;;;38.33;19.45;100426.41;5051630;28;20201;-68
2022/06/18 07:37:44;;;;;;;5.60;1.60;;;;;;;38.41;19.17;100428.56;5051411;28;20304;-68
2022/06/18 07:40:11;;;;;;;4.30;1.27;;;;;;;37.40;20.00;100430.28;5042413;28;20216;-68
2022/06/18 07:42:36;;;;;;;3.58;1.48;;;;;;;35.79;21.78;100423.97;5065918;28;20284;-68
2022/06/18 07:45:01;;;;;;;1.00;1.00;;;;;;;36.06;20.97;100424.13;5051406;28;20184;-68
2022/06/18 07:47:27;;;;;;;3.90;1.20;;;;;;;37.08;20.35;100420.31;5046407;28;20181;-68
2022/06/18 07:49:52;;;;;;;3.53;1.25;;;;;;;36.90;20.31;100419.59;5038998;28;20637;-68
2022/06/18 07:52:18;;;;;;;2.65;1.42;;;;;;;35.74;21.23;100415.84;5024951;28;20299;-68
2022/06/18 07:54:43;;;;;;;1.77;1.30;;;;;;;36.50;21.50;100418.03;5051466;28;20530;-68
2022/06/18 07:57:09;;;;;;;4.07;3.67;;;;;;;35.27;21.46;100412.41;5043033;28;20178;-69
2022/06/18 07:59:35;;;;;;;4.68;1.52;;;;;;;35.27;22.72;100408.94;5049643;28;20181;-68
2022/06/18 08:02:00;;;;;;;1.30;1.20;;;;;;;36.41;21.96;100400.78;5026708;28;20218;-68
2022/06/18 08:04:26;;;;;;;4.80;1.58;;;;;;;37.37;20.76;100399.41;5048331;28;20182;-68
2022/06/18 08:06:52;;;;;;;4.43;1.13;;;;;;;37.82;19.83;100405.41;5049512;28;20243;-68
2022/06/18 08:09:18;;;;;;;2.95;1.20;;;;;;;38.08;19.57;100397.50;5050896;28;20189;-68
2022/06/18 08:11:44;;;;;;;5.00;1.20;;;;;;;37.82;19.23;100394.66;5040128;28;20252;-69
2022/06/18 08:14:10;;;;;;;3.00;1.13;;;;;;;38.43;21.09;100391.50;5043226;28;20547;-69
2022/06/18 08:16:36;;;;;;;3.40;1.45;;;;;;;39.93;18.93;100391.66;5050851;28;20183;-68
2022/06/18 08:19:02;;;;;;;7.30;1.40;;;;;;;38.19;18.97;100393.78;5051407;28;20181;-68
2022/06/18 08:21:33;;;;;;;2.50;1.17;;;;;;;39.44;19.30;100390.34;5030643;28;20252;-68
2022/06/18 08:24:09;;;;;;;2.80;1.25;;;;;;;40.21;18.09;100375.97;5045406;28;20229;-68
2022/06/18 08:26:37;;;;;;;5.57;1.45;;;;;;;37.88;19.16;100379.41;5050282;28;20189;-68
2022/06/18 08:29:06;;;;;;;5.05;1.20;;;;;;;37.82;19.62;100377.75;5050591;28;20248;-68
2022/06/18 08:31:31;;;;;;;6.93;1.45;;;;;;;38.30;19.95;100369.69;5021570;28;20303;-68
2022/06/18 08:33:57;;;;;;;3.45;1.10;;;;;;;37.67;19.67;100376.56;5044293;28;20352;-68
2022/06/18 08:36:23;;;;;;;2.95;1.30;;;;;;;39.23;19.55;100370.72;5048690;28;20316;-69
2022/06/18 08:38:49;;;;;;;6.32;1.45;;;;;;;41.23;18.08;100379.13;5051067;28;20224;-68
2022/06/18 08:41:23;;;;;;;3.30;1.52;;;;;;;41.64;17.79;100377.16;5039842;28;20632;-68
2022/06/18 08:44:10;;;;;;;2.78;1.30;;;;;;;41.01;17.57;100370.69;5036973;28;20645;-69
2022/06/18 08:46:58;;;;;;;1.30;1.20;;;;;;;40.53;17.56;100363.94;5048968;28;20613;-69
2022/06/18 08:49:26;;;;;;;7.70;1.35;;;;;;;39.42;18.11;100359.41;5049179;28;20172;-68
2022/06/18 08:52:25;;;;;;;5.38;1.60;;;;;;;37.53;19.11;100353.94;5039810;28;22229;-69
2022/06/18 08:55:16;;;;;;;5.75;1.30;;;;;;;38.76;19.28;100359.09;5045079;28;20205;-68
2022/06/18 08:58:04;;;;;;;2.13;1.35;;;;;;;36.31;20.33;100354.03;5048782;28;20189;-68
2022/06/18 09:00:44;;;;;;;2.45;1.38;;;;;;;39.98;18.18;100356.63;5040530;28;20249;-69
2022/06/18 09:03:17;;;;;;;1.38;1.27;;;;;;;40.13;17.21;100358.50;5037848;28;20655;-70
2022/06/18 09:05:59;;;;;;;2.05;1.33;;;;;;;40.98;17.41;100358.53;5050275;28;20262;-68
2022/06/18 09:08:44;;;;;;;1.15;1.10;;;;;;;41.93;16.52;100355.53;5050340;28;20196;-68
2022/06/18 09:11:28;;;;;;;7.63;1.50;;;;;;;41.19;16.69;100351.09;5028552;28;20236;-68
2022/06/18 09:14:20;;;;;;;2.78;1.15;;;;;;;41.41;15.72;100352.53;5053744;28;20193;-68
2022/06/18 09:17:04;;;;;;;4.75;1.30;;;;;;;40.82;17.82;100345.19;5036317;28;20196;-68
2022/06/18 09:19:31;;;;;;;6.93;1.30;;;;;;;41.61;17.10;100354.25;5048590;28;20185;-69
2022/06/18 09:22:00;;;;;;;3.00;1.40;;;;;;;41.40;16.26;100340.91;5037634;28;20265;-70
2022/06/18 09:24:42;;;;;;;1.92;1.02;;;;;;;41.62;16.87;100342.38;5048808;28;20232;-69
2022/06/18 09:27:17;;;;;;;1.48;1.02;;;;;;;42.18;16.69;100340.09;5048389;28;20212;-69
2022/06/18 09:29:48;;;;;;;4.15;1.27;;;;;;;42.21;15.98;100343.03;5049858;28;20209;-69
2022/06/18 09:32:21;;;;;;;2.42;1.58;;;;;;;41.83;17.07;100332.13;5038791;28;20299;-68
2022/06/18 09:34:54;;;;;;;3.05;1.50;;;;;;;43.03;16.32;100329.41;5050170;28;20208;-70
2022/06/18 09:37:43;;;;;;;3.55;1.20;;;;;;;42.71;16.24;100334.53;5049673;28;20193;-69
2022/06/18 09:40:19;;;;;;;3.38;1.35;;;;;;;41.71;16.52;100327.13;5038794;28;20263;-69
2022/06/18 09:43:08;;;;;;;1.42;1.10;;;;;;;42.53;17.08;100321.78;5050289;28;20208;-68
2022/06/18 09:45:43;;;;;;;2.40;1.17;;;;;;;41.82;17.18;100319.72;5043110;28;20208;-68
2022/06/18 09:48:09;;;;;;;4.03;1.30;;;;;;;41.48;16.99;100312.53;5053021;28;20187;-69
2022/06/18 09:50:48;;;;;;;4.63;1.50;;;;;;;42.37;15.95;100313.91;5043037;28;20261;-68
2022/06/18 09:53:20;;;;;;;2.65;1.27;;;;;;;42.32;17.14;100316.69;5039165;28;20180;-69
2022/06/18 09:56:01;;;;;;;6.45;1.63;;;;;;;42.64;15.94;100314.34;5051904;28;20217;-68
2022/06/18 09:58:34;;;;;;;3.42;1.20;;;;;;;43.59;15.25;100315.97;5053474;28;20200;-69
2022/06/18 10:01:00;;;;;;;2.17;1.20;;;;;;;44.10;15.39;100306.00;5042685;28;20235;-68
2022/06/18 10:09:16;;;;;;;7.60;1.50;;;;;;;44.60;14.23;100303.25;5053130;28;20197;-75
2022/06/18 10:11:42;;;;;;;2.70;1.30;;;;;;;44.25;14.37;100297.53;5039314;28;20244;-74
2022/06/18 10:14:14;;;;;;;3.78;1.42;;;;;;;43.59;15.55;100302.44;5043289;28;20177;-73
2022/06/18 10:17:12;;;;;;;2.95;1.38;;;;;;;44.31;14.52;100284.66;5052240;28;20284;-73
2022/06/18 10:20:19;;;;;;;6.45;2.03;;;;;;;45.65;12.94;100294.03;5053221;28;20177;-76
2022/06/18 10:23:09;;;;;;;4.47;1.92;;;;;;;45.37;13.98;100292.34;5022053;28;20660;-74
2022/06/18 10:25:45;;;;;;;6.57;1.52;;;;;;;44.96;14.19;100286.09;5041728;28;20573;-74
2022/06/18 10:28:26;;;;;;;5.00;1.70;;;;;;;43.80;15.13;100279.25;5052526;28;20706;-74
2022/06/18 10:31:22;;;;;;;3.85;1.40;;;;;;;39.36;18.00;100272.50;5038293;28;20266;-74
2022/06/18 10:34:11;;;;;;;5.82;1.88;;;;;;;40.85;18.21;100267.50;5052404;28;20177;-74
2022/06/18 10:37:01;;;;;;;4.57;1.70;;;;;;;42.14;16.40;100266.94;5051102;28;20182;-74
2022/06/18 10:39:39;;;;;;;3.03;1.60;;;;;;;40.75;17.53;100263.00;5051372;28;20193;-71
2022/06/18 10:42:31;;;;;;;8.35;2.40;;;;;;;37.84;19.88;100252.16;5041545;28;20308;-74
2022/06/18 10:45:04;;;;;;;8.32;1.88;;;;;;;38.38;20.27;100250.97;5053051;28;20188;-76
2022/06/18 10:47:35;;;;;;;5.45;1.70;;;;;;;36.27;22.05;100247.66;5050967;28;20186;-74
2022/06/18 10:50:05;;;;;;;2.78;1.67;;;;;;;36.88;22.32;100249.38;5041247;28;20178;-73
2022/06/18 10:52:31;;;;;;;4.28;1.70;;;;;;;36.31;22.84;100246.94;5044840;28;20753;-71
2022/06/18 10:55:16;;;;;;;2.95;1.63;;;;;;;36.43;23.70;100238.78;5061636;28;20209;-70
2022/06/18 10:57:42;;;;;;;6.35;1.92;;;;;;;36.42;22.88;100236.34;5051960;28;20268;-73
2022/06/18 11:00:15;;;;;;;3.63;1.80;;;;;;;36.15;23.12;100229.09;5030956;28;20260;-74
2022/06/18 11:02:41;;;;;;;4.95;1.77;;;;;;;34.69;24.27;100227.25;5051463;28;20184;-74
2022/06/18 11:05:39;;;;;;;5.00;1.70;;;;;;;35.15;24.57;100224.53;5052421;28;20192;-73
2022/06/18 11:08:22;;;;;;;4.50;1.90;;;;;;;35.49;24.34;100206.59;5049654;28;20190;-73
2022/06/18 11:10:57;;;;;;;4.68;1.80;;;;;;;36.39;24.15;100212.75;5041706;28;20221;-73
2022/06/18 11:13:33;;;;;;;3.78;1.70;;;;;;;36.14;23.56;100209.53;5050872;28;20255;-73
2022/06/18 11:16:26;;;;;;;6.78;1.95;;;;;;;36.03;22.70;100211.31;5041297;28;20371;-72
2022/06/18 11:19:00;;;;;;;4.88;2.25;;;;;;;36.05;23.24;100205.69;5037613;28;20205;-71
2022/06/18 11:21:32;;;;;;;8.45;2.80;;;;;;;36.32;21.58;100197.66;5052441;28;20316;-69
2022/06/18 11:24:15;;;;;;;6.88;2.00;;;;;;;36.52;22.85;100196.28;5046115;28;20228;-70
2022/06/18 11:27:03;;;;;;;4.22;1.63;;;;;;;35.94;22.30;100193.25;5049725;28;20235;-71
2022/06/18 11:29:45;;;;;;;6.93;1.98;;;;;;;35.95;23.07;100184.16;5050483;28;20245;-69
2022/06/18 11:32:24;;;;;;;7.05;2.13;;;;;;;35.69;23.64;100195.34;5007972;28;20313;-71
2022/06/18 11:35:01;;;;;;;3.47;1.83;;;;;;;35.89;24.00;100187.81;5051668;28;20270;-72
2022/06/18 11:37:30;;;;;;;4.63;2.10;;;;;;;36.11;21.91;100179.78;5051179;28;20196;-73
2022/06/18 11:39:57;;;;;;;5.28;2.13;;;;;;;36.17;24.00;100179.59;5037680;28;20545;-77
2022/06/18 11:42:47;;;;;;;10.75;2.15;;;;;;;36.19;22.89;100182.00;5021035;28;20671;-73
2022/06/18 11:45:31;;;;;;;6.07;2.13;;;;;;;36.33;24.43;100177.03;5049934;28;20181;-67
2022/06/18 11:48:14;;;;;;;5.47;1.77;;;;;;;36.47;23.02;100180.97;5042138;28;20571;-72
2022/06/18 11:50:52;;;;;;;7.30;2.75;;;;;;;35.98;21.99;100167.59;5043344;28;20243;-70
2022/06/18 11:53:42;;;;;;;5.97;2.38;;;;;;;35.56;23.10;100160.94;5050625;28;20247;-73
2022/06/18 11:56:20;;;;;;;7.28;2.50;;;;;;;35.77;24.14;100159.31;5034929;28;20255;-72